Observations for SOUTHEND-ON-SEA, United Kingdom (EGMC)

EGMC 201650Z 23011KT 9999 SCT039 24/15 Q1017
EGMC 201620Z 23011KT 9999 FEW041 24/16 Q1017
EGMC 201550Z 23012KT 9999 FEW038 25/15 Q1018
EGMC 201520Z 21013KT 9999 FEW036 25/15 Q1018
EGMC 201450Z 23013KT 210V270 9999 FEW034 24/15 Q1018
EGMC 201420Z 24012KT 210V270 9999 FEW034 24/15 Q1018
EGMC 201350Z 25012KT 210V270 9999 FEW033 24/15 Q1019
EGMC 201320Z 24013KT 220V280 9999 FEW030 24/15 Q1019
EGMC 201250Z 23013KT 200V260 9999 FEW027 23/15 Q1019
EGMC 201220Z 22015KT 9999 FEW032 23/15 Q1019
EGMC 201150Z 23014KT 9999 FEW028 23/15 Q1019
EGMC 201120Z 22014KT 9999 FEW021 22/14 Q1019
EGMC 201050Z 23014KT 9999 FEW018 21/14 Q1020
EGMC 201020Z 23014KT 9999 FEW018 20/14 Q1020
EGMC 200920Z 23016KT 9999 FEW013 SCT015 19/14 Q1020 
EGMC 200850Z 22014KT 9999 BKN012 18/14 Q1020
EGMC 200820Z 23012KT 9999 BKN011 17/14 Q1020
EGMC 200750Z 23012KT 9999 BKN009 17/14 Q1020
EGMC 200720Z 23011KT 9999 BKN008 16/14 Q1020
EGMC 200650Z 22011KT 9000 BKN007 16/14 Q1020
EGMC 200620Z 22011KT 9000 BKN007 15/14 Q1020
EGMC 200550Z 22011KT 9000 BKN006 15/14 Q1020
EGMC 200520Z 22011KT 8000 SCT004 BKN005 15/14 Q1020 
EGMC 200450Z 21011KT 7000 BKN004 15/14 Q1020
EGMC 200350Z 20008KT 4500 2200W BR BKN004 15/14 Q1020   
EGMC 200250Z 21007KT 9999 FEW003 15/14 Q1021
EGMC 200150Z 22006KT CAVOK 16/14 Q1021  
EGMC 200050Z 21006KT CAVOK 16/14 Q1021  
EGMC 192350Z 22007KT CAVOK 17/14 Q1022  
EGMC 192320Z 23007KT 9999 FEW030 17/14 Q1022
EGMC 192250Z 23009KT 9999 FEW030 17/14 Q1022
EGMC 192220Z 21008KT CAVOK 18/15 Q1022  
EGMC 192150Z 22010KT 9999 FEW035 18/15 Q1022
EGMC 192120Z 21011KT CAVOK 19/16 Q1022  
EGMC 192050Z 21011KT CAVOK 19/16 Q1022  
EGMC 192020Z 21011KT CAVOK 20/16 Q1021  
EGMC 191950Z 21011KT CAVOK 21/16 Q1021  
EGMC 191920Z 21011KT 9999 FEW049 22/16 Q1021
EGMC 191850Z 21013KT 9999 SCT040 22/16 Q1021
EGMC 191820Z 21013KT 9999 FEW037 22/16 Q1021
EGMC 191750Z 21012KT 9999 FEW039 22/16 Q1021
EGMC 191720Z 21014KT 9999 FEW030 23/16 Q1021
EGMC 191650Z 21012KT 9999 FEW036 24/16 Q1021
EGMC 191620Z 22012KT 9999 SCT041 24/15 Q1021